Time;durP1;ratioP1;P1;durP2;ratioP2;P2;SDS_P1;SDS_P2;PMS_P1;PMS_P2;Temp;Humidity;BMP_temperature;BMP_pressure;BME280_temperature;BME280_humidity;BME280_pressure;Samples;Min_cycle;Max_cycle;Signal;HPM_P1;HPM_P2
2021/07/26 00:00:11;;;;;;;;;;;;;;;16.94;100.00;95530.78;1053489;28;19959;-68
2021/07/26 00:00:41;;;;;;;;;;;;;;;16.93;100.00;95534.59;1048958;28;20352;-68
2021/07/26 00:01:15;;;;;;;;;;;;;;;16.88;100.00;95533.66;1049057;28;20293;-68
2021/07/26 00:01:45;;;;;;;;;;;;;;;16.85;100.00;95522.72;1049043;28;19912;-68
2021/07/26 00:02:16;;;;;;;;;;;;;;;16.86;100.00;95529.69;1045413;28;19951;-68
2021/07/26 00:02:47;;;;;;;;;;;;;;;16.88;100.00;95528.25;1048910;28;19917;-68
2021/07/26 00:03:17;;;;;;;;;;;;;;;16.90;100.00;95527.94;1049041;28;20352;-68
2021/07/26 00:03:47;;;;;;;;;;;;;;;16.87;100.00;95526.69;1049193;28;19913;-68
2021/07/26 00:04:18;;;;;;;;;;;;;;;16.83;100.00;95525.72;1053577;28;19924;-68
2021/07/26 00:04:48;;;;;;;;;;;;;;;16.80;100.00;95531.00;1053517;28;20434;-68
2021/07/26 00:05:18;;;;;;;;;;;;;;;16.80;100.00;95529.09;1053539;28;19919;-68
2021/07/26 00:05:58;;;;;;;;;;;;;;;16.78;100.00;95527.81;1053517;28;20027;-68
2021/07/26 00:06:28;;;;;;;;;;;;;;;16.80;100.00;95534.47;1053521;28;19934;-68
2021/07/26 00:07:00;;;;;;;;;;;;;;;16.79;100.00;95530.19;1053489;28;19939;-68
2021/07/26 00:07:30;;;;;;;;;;;;;;;16.78;100.00;95534.00;1053491;28;20058;-68
2021/07/26 00:08:00;;;;;;;;;;;;;;;16.78;100.00;95533.19;1053424;28;20017;-68
2021/07/26 00:08:31;;;;;;;;;;;;;;;16.78;100.00;95533.19;1053473;28;19937;-68
2021/07/26 00:09:01;;;;;;;;;;;;;;;16.78;100.00;95528.59;1053537;28;19914;-68
2021/07/26 00:09:34;;;;;;;;;;;;;;;16.79;100.00;95535.59;1057354;28;20403;-68
2021/07/26 00:10:05;;;;;;;;;;;;;;;16.80;100.00;95534.47;1057469;28;19918;-68
2021/07/26 00:10:36;;;;;;;;;;;;;;;16.80;100.00;95531.78;1057386;28;19915;-68
2021/07/26 00:11:07;;;;;;;;;;;;;;;16.79;100.00;95532.91;1056886;28;19996;-68
2021/07/26 00:11:37;;;;;;;;;;;;;;;16.79;100.00;95537.50;1053474;28;20288;-68
2021/07/26 00:12:07;;;;;;;;;;;;;;;16.81;100.00;95536.06;1053526;28;19912;-68
2021/07/26 00:12:38;;;;;;;;;;;;;;;16.80;100.00;95539.09;1053266;28;19920;-68
2021/07/26 00:13:08;;;;;;;;;;;;;;;16.82;100.00;95531.44;1053510;28;20277;-68
2021/07/26 00:13:39;;;;;;;;;;;;;;;16.83;100.00;95533.03;1053453;28;20285;-68
2021/07/26 00:14:09;;;;;;;;;;;;;;;16.85;100.00;95531.63;1053495;28;19900;-68
2021/07/26 00:14:39;;;;;;;;;;;;;;;16.86;100.00;95532.41;1053388;28;19922;-68
2021/07/26 00:15:11;;;;;;;;;;;;;;;16.84;100.00;95531.94;1053463;28;19950;-68
2021/07/26 00:15:41;;;;;;;;;;;;;;;16.81;100.00;95529.88;1053372;28;19912;-68
2021/07/26 00:16:11;;;;;;;;;;;;;;;16.80;100.00;95531.78;1053503;28;19944;-68
2021/07/26 00:16:42;;;;;;;;;;;;;;;16.81;100.00;95527.16;1053484;28;19962;-68
2021/07/26 00:17:12;;;;;;;;;;;;;;;16.84;100.00;95526.53;1053513;28;19970;-68
2021/07/26 00:17:42;;;;;;;;;;;;;;;16.82;100.00;95524.16;1053373;28;19919;-68
2021/07/26 00:18:12;;;;;;;;;;;;;;;16.83;100.00;95522.22;1053491;28;19916;-68
2021/07/26 00:18:43;;;;;;;;;;;;;;;16.79;100.00;95521.31;1053460;28;20381;-68
2021/07/26 00:19:13;;;;;;;;;;;;;;;16.79;100.00;95524.81;1053483;28;19916;-68
2021/07/26 00:19:43;;;;;;;;;;;;;;;16.80;100.00;95522.91;1053451;28;19955;-68
2021/07/26 00:20:15;;;;;;;;;;;;;;;16.81;100.00;95522.56;1053378;28;20385;-68
2021/07/26 00:20:45;;;;;;;;;;;;;;;16.83;100.00;95519.53;1053449;28;19912;-68
2021/07/26 00:21:16;;;;;;;;;;;;;;;16.82;100.00;95518.75;1053447;28;19923;-68
2021/07/26 00:21:46;;;;;;;;;;;;;;;16.78;100.00;95517.00;1053436;28;19912;-68
2021/07/26 00:22:16;;;;;;;;;;;;;;;16.79;100.00;95522.09;1053380;28;20361;-68
2021/07/26 00:22:48;;;;;;;;;;;;;;;16.81;100.00;95519.06;1053155;28;19919;-68
2021/07/26 00:23:18;;;;;;;;;;;;;;;16.83;100.00;95516.84;1053464;28;19916;-68
2021/07/26 00:23:48;;;;;;;;;;;;;;;16.83;100.00;95519.53;1048848;28;19909;-69
2021/07/26 00:24:19;;;;;;;;;;;;;;;16.83;100.00;95522.22;1044846;28;19916;-68
2021/07/26 00:24:49;;;;;;;;;;;;;;;16.84;100.00;95518.44;1044870;28;19913;-68
2021/07/26 00:25:21;;;;;;;;;;;;;;;16.84;100.00;95521.16;1044887;28;20007;-68
2021/07/26 00:25:52;;;;;;;;;;;;;;;16.84;100.00;95521.16;1049364;28;19909;-68
2021/07/26 00:26:24;;;;;;;;;;;;;;;16.85;100.00;95520.03;1053341;28;19912;-68
2021/07/26 00:26:55;;;;;;;;;;;;;;;16.84;100.00;95521.16;1053448;28;19912;-68
2021/07/26 00:27:25;;;;;;;;;;;;;;;16.85;100.00;95525.44;1053357;28;20387;-68
2021/07/26 00:27:55;;;;;;;;;;;;;;;16.84;100.00;95529.25;1053457;28;19989;-68
2021/07/26 00:28:25;;;;;;;;;;;;;;;16.82;100.00;95526.06;1053452;28;19935;-68
2021/07/26 00:28:56;;;;;;;;;;;;;;;16.84;100.00;95529.25;1053468;28;19912;-68
2021/07/26 00:29:26;;;;;;;;;;;;;;;16.81;100.00;95529.88;1048809;28;19955;-68
2021/07/26 00:29:56;;;;;;;;;;;;;;;16.76;100.00;95527.34;1048964;28;20262;-68
2021/07/26 00:30:27;;;;;;;;;;;;;;;16.75;100.00;95528.47;1048886;28;19952;-68
2021/07/26 00:30:57;;;;;;;;;;;;;;;16.76;100.00;95530.03;1048995;28;19916;-68
2021/07/26 00:31:27;;;;;;;;;;;;;;;16.76;100.00;95524.63;1053375;28;20446;-68
2021/07/26 00:31:57;;;;;;;;;;;;;;;16.78;100.00;95525.09;1053422;28;19912;-68
2021/07/26 00:32:31;;;;;;;;;;;;;;;16.78;100.00;95525.88;1053075;28;19916;-68
2021/07/26 00:33:01;;;;;;;;;;;;;;;16.76;100.00;95516.53;1053386;28;19916;-68
2021/07/26 00:34:05;;;;;;;;;;;;;;;16.75;100.00;95525.75;1053347;28;19954;-68
2021/07/26 00:34:35;;;;;;;;;;;;;;;16.71;100.00;95530.19;1053146;28;20377;-69
2021/07/26 00:35:05;;;;;;;;;;;;;;;16.70;100.00;95528.59;1053417;28;19912;-68
2021/07/26 00:35:35;;;;;;;;;;;;;;;16.69;100.00;95529.72;1053408;28;19916;-68
2021/07/26 00:36:06;;;;;;;;;;;;;;;16.66;100.00;95528.44;1053425;28;20272;-68
2021/07/26 00:36:37;;;;;;;;;;;;;;;16.60;100.00;95530.50;1053327;28;19912;-68
2021/07/26 00:37:07;;;;;;;;;;;;;;;16.62;100.00;95532.88;1053401;28;20029;-68
2021/07/26 00:37:37;;;;;;;;;;;;;;;16.63;100.00;95535.28;1053406;28;20353;-68
2021/07/26 00:38:08;;;;;;;;;;;;;;;16.63;100.00;95529.06;1053369;28;20510;-68
2021/07/26 00:38:38;;;;;;;;;;;;;;;16.64;100.00;95526.06;1053402;28;19915;-68
2021/07/26 00:39:08;;;;;;;;;;;;;;;16.64;100.00;95526.06;1053294;28;19932;-68
2021/07/26 00:39:39;;;;;;;;;;;;;;;16.63;100.00;95534.47;1053331;28;19912;-68
2021/07/26 00:40:09;;;;;;;;;;;;;;;16.55;100.00;95527.19;1053289;28;19910;-68
2021/07/26 00:40:42;;;;;;;;;;;;;;;16.53;100.00;95532.91;1053351;28;20357;-68
2021/07/26 00:41:12;;;;;;;;;;;;;;;16.53;100.00;95524.81;1053243;28;20295;-68
2021/07/26 00:41:43;;;;;;;;;;;;;;;16.53;100.00;95538.28;1053362;28;19915;-68
2021/07/26 00:42:13;;;;;;;;;;;;;;;16.51;100.00;95542.41;1053342;28;19908;-68
2021/07/26 00:42:43;;;;;;;;;;;;;;;16.47;100.00;95536.84;1053027;28;19947;-68
2021/07/26 00:43:13;;;;;;;;;;;;;;;16.46;100.00;95535.28;1053355;28;19908;-68
2021/07/26 00:43:44;;;;;;;;;;;;;;;16.43;100.00;95535.91;1053374;28;19962;-68
2021/07/26 00:44:15;;;;;;;;;;;;;;;16.42;100.00;95531.63;1053372;28;19911;-68
2021/07/26 00:44:45;;;;;;;;;;;;;;;16.40;100.00;95536.53;1053323;28;20393;-68
2021/07/26 00:45:15;;;;;;;;;;;;;;;16.42;100.00;95539.69;1053347;28;20330;-68
2021/07/26 00:45:47;;;;;;;;;;;;;;;16.42;100.00;95536.22;1053382;28;19909;-68
2021/07/26 00:46:17;;;;;;;;;;;;;;;16.42;100.00;95536.22;1053324;28;19947;-68
2021/07/26 00:46:47;;;;;;;;;;;;;;;16.38;100.00;95542.25;1053332;28;20307;-68
2021/07/26 00:47:17;;;;;;;;;;;;;;;16.38;100.00;95536.09;1053334;28;19908;-68
2021/07/26 00:47:48;;;;;;;;;;;;;;;16.41;100.00;95538.13;1053353;28;19908;-68
2021/07/26 00:48:18;;;;;;;;;;;;;;;16.41;100.00;95537.34;1053296;28;20338;-68
2021/07/26 00:48:48;;;;;;;;;;;;;;;16.37;100.00;95543.34;1053274;28;19961;-68
2021/07/26 00:49:19;;;;;;;;;;;;;;;16.38;100.00;95542.25;1053302;28;19910;-68
2021/07/26 00:49:49;;;;;;;;;;;;;;;16.36;100.00;95543.69;1048860;28;20003;-68
2021/07/26 00:50:20;;;;;;;;;;;;;;;16.39;100.00;95540.34;1044730;28;19955;-68
2021/07/26 00:50:52;;;;;;;;;;;;;;;16.40;100.00;95547.34;1040657;28;20424;-68
2021/07/26 00:51:23;;;;;;;;;;;;;;;16.40;100.00;95539.25;1040904;28;19909;-68
2021/07/26 00:51:54;;;;;;;;;;;;;;;16.42;100.00;95542.41;1045124;28;19909;-68
2021/07/26 00:52:24;;;;;;;;;;;;;;;16.44;100.00;95542.09;1048826;28;19938;-68
2021/07/26 00:52:54;;;;;;;;;;;;;;;16.44;100.00;95540.19;1048548;28;19952;-68
2021/07/26 00:53:24;;;;;;;;;;;;;;;16.44;100.00;95544.81;1052883;28;21044;-68
2021/07/26 00:53:55;;;;;;;;;;;;;;;16.44;100.00;95544.81;1048793;28;19915;-68
2021/07/26 00:54:26;;;;;;;;;;;;;;;16.46;100.00;95551.44;1048664;28;19927;-68
2021/07/26 00:54:56;;;;;;;;;;;;;;;16.49;100.00;95550.03;1048923;28;19909;-69
2021/07/26 00:55:26;;;;;;;;;;;;;;;16.47;100.00;95549.53;1053067;28;20289;-69
2021/07/26 00:55:57;;;;;;;;;;;;;;;16.44;100.00;95548.28;1053123;28;20353;-69
2021/07/26 00:56:27;;;;;;;;;;;;;;;16.44;100.00;95550.19;1052995;28;19950;-69
2021/07/26 00:56:58;;;;;;;;;;;;;;;16.42;100.00;95547.00;1053085;28;20363;-68
2021/07/26 00:57:29;;;;;;;;;;;;;;;16.42;100.00;95545.09;1048954;28;20384;-69
2021/07/26 00:57:59;;;;;;;;;;;;;;;16.41;100.00;95548.13;1048797;28;19951;-68
2021/07/26 00:58:29;;;;;;;;;;;;;;;16.40;100.00;95546.53;1052876;28;19904;-68
2021/07/26 00:58:59;;;;;;;;;;;;;;;16.40;100.00;95544.63;1053104;28;20389;-68
2021/07/26 00:59:30;;;;;;;;;;;;;;;16.41;100.00;95546.22;1052967;28;20393;-69
2021/07/26 01:00:00;;;;;;;;;;;;;;;16.40;100.00;95546.53;1057280;28;19958;-69
2021/07/26 01:00:30;;;;;;;;;;;;;;;16.37;100.00;95543.34;1053276;28;19940;-68
2021/07/26 01:01:01;;;;;;;;;;;;;;;16.41;100.00;95548.13;1053405;28;19915;-68
2021/07/26 01:01:31;;;;;;;;;;;;;;;16.41;100.00;95548.91;1053241;28;20345;-68
2021/07/26 01:02:01;;;;;;;;;;;;;;;16.41;100.00;95546.22;1048842;28;20349;-69
2021/07/26 01:02:31;;;;;;;;;;;;;;;16.42;100.00;95544.31;1048791;28;19954;-68
2021/07/26 01:03:02;;;;;;;;;;;;;;;16.43;100.00;95549.41;1049527;28;20014;-68
2021/07/26 01:03:32;;;;;;;;;;;;;;;16.43;100.00;95546.72;1048787;28;20289;-68
2021/07/26 01:04:02;;;;;;;;;;;;;;;16.44;100.00;95544.81;1048796;28;19909;-69
2021/07/26 01:04:33;;;;;;;;;;;;;;;16.46;100.00;95543.34;1048798;28;19905;-68
2021/07/26 01:05:03;;;;;;;;;;;;;;;16.47;100.00;95536.84;1044647;28;20390;-68
2021/07/26 01:05:33;;;;;;;;;;;;;;;16.48;100.00;95537.63;1044579;28;19905;-68
2021/07/26 01:06:03;;;;;;;;;;;;;;;16.47;100.00;95531.47;1049155;28;19940;-68
2021/07/26 01:06:34;;;;;;;;;;;;;;;16.50;100.00;95536.22;1050622;28;20338;-68
2021/07/26 01:07:04;;;;;;;;;;;;;;;16.51;100.00;95542.41;1053307;28;19995;-68
2021/07/26 01:07:34;;;;;;;;;;;;;;;16.52;100.00;95542.09;1053188;28;20281;-69
2021/07/26 01:08:05;;;;;;;;;;;;;;;16.53;100.00;95535.59;1048813;28;19914;-68
2021/07/26 01:08:35;;;;;;;;;;;;;;;16.54;100.00;95533.69;1044655;28;20003;-68
2021/07/26 01:09:05;;;;;;;;;;;;;;;16.56;100.00;95528.75;1044666;28;19909;-68
2021/07/26 01:09:36;;;;;;;;;;;;;;;16.55;100.00;95529.88;1044719;28;19948;-68
2021/07/26 01:10:06;;;;;;;;;;;;;;;16.58;100.00;95524.66;1044672;28;19908;-68
2021/07/26 01:10:36;;;;;;;;;;;;;;;16.60;100.00;95529.72;1044601;28;20309;-69
2021/07/26 01:11:07;;;;;;;;;;;;;;;16.61;100.00;95526.69;1044730;28;19904;-68
2021/07/26 01:11:37;;;;;;;;;;;;;;;16.59;100.00;95528.94;1044702;28;19905;-68
2021/07/26 01:12:08;;;;;;;;;;;;;;;16.59;100.00;95534.31;1048736;28;20520;-68
2021/07/26 01:12:38;;;;;;;;;;;;;;;16.59;100.00;95523.53;1053119;28;20353;-68
2021/07/26 01:13:08;;;;;;;;;;;;;;;16.60;100.00;95527.81;1053252;28;19912;-68
2021/07/26 01:13:38;;;;;;;;;;;;;;;16.62;100.00;95517.47;1053265;28;19904;-69
2021/07/26 01:14:09;;;;;;;;;;;;;;;16.63;100.00;95523.66;1053234;28;19959;-69
2021/07/26 01:14:39;;;;;;;;;;;;;;;16.63;100.00;95520.97;1053177;28;19905;-69
2021/07/26 01:15:10;;;;;;;;;;;;;;;16.63;100.00;95526.34;1048832;28;20026;-69
2021/07/26 01:15:40;;;;;;;;;;;;;;;16.63;100.00;95523.66;1048824;28;20385;-69
2021/07/26 01:16:10;;;;;;;;;;;;;;;16.63;100.00;95520.97;1048716;28;19916;-69
2021/07/26 01:16:41;;;;;;;;;;;;;;;16.62;100.00;95519.38;1048759;28;19999;-69
2021/07/26 01:17:13;;;;;;;;;;;;;;;16.60;100.00;95518.94;1053238;28;20353;-69
2021/07/26 01:18:05;;;;;;;;;;;;;;;16.62;100.00;95522.09;1053164;28;19919;-69
2021/07/26 01:18:36;;;;;;;;;;;;;;;16.62;100.00;95522.88;1053156;28;19916;-69
2021/07/26 01:19:06;;;;;;;;;;;;;;;16.64;100.00;95519.88;1053266;28;20353;-69
2021/07/26 01:19:37;;;;;;;;;;;;;;;16.64;100.00;95520.66;1053311;28;19912;-68
2021/07/26 01:20:07;;;;;;;;;;;;;;;16.65;100.00;95521.47;1053214;28;19915;-69
2021/07/26 01:20:37;;;;;;;;;;;;;;;16.64;100.00;95517.97;1053155;28;19988;-69
2021/07/26 01:21:14;;;;;;;;;;;;;;;16.65;100.00;95526.84;1048783;28;19908;-69
2021/07/26 01:21:44;;;;;;;;;;;;;;;16.64;100.00;95522.56;1048754;28;19912;-68
2021/07/26 01:22:15;;;;;;;;;;;;;;;16.65;100.00;95526.84;1048707;28;20331;-69
2021/07/26 01:22:45;;;;;;;;;;;;;;;16.65;100.00;95529.56;1049509;28;19913;-68
2021/07/26 01:23:15;;;;;;;;;;;;;;;16.66;100.00;95524.94;1053141;28;19944;-69
2021/07/26 01:23:47;;;;;;;;;;;;;;;16.67;100.00;95530.00;1053146;28;19938;-68
2021/07/26 01:24:17;;;;;;;;;;;;;;;16.64;100.00;95533.38;1053200;28;19959;-68
2021/07/26 01:24:47;;;;;;;;;;;;;;;16.64;100.00;95531.47;1053145;28;19916;-68
2021/07/26 01:25:17;;;;;;;;;;;;;;;16.62;100.00;95524.78;1053153;28;19908;-68
2021/07/26 01:25:48;;;;;;;;;;;;;;;16.60;100.00;95530.50;1053117;28;19916;-68
2021/07/26 01:26:19;;;;;;;;;;;;;;;16.60;100.00;95527.81;1053221;28;19909;-69
2021/07/26 01:26:49;;;;;;;;;;;;;;;16.63;100.00;95526.34;1053186;28;19947;-68
2021/07/26 01:27:19;;;;;;;;;;;;;;;16.64;100.00;95531.47;1053270;28;19908;-68
2021/07/26 01:27:50;;;;;;;;;;;;;;;16.63;100.00;95529.06;1053167;28;19916;-68
2021/07/26 01:28:20;;;;;;;;;;;;;;;16.64;100.00;95533.38;1053263;28;19916;-68
2021/07/26 01:28:52;;;;;;;;;;;;;;;16.63;100.00;95529.88;1053151;28;19916;-68
2021/07/26 01:29:22;;;;;;;;;;;;;;;16.64;100.00;95531.47;1053248;28;20418;-69
2021/07/26 01:29:53;;;;;;;;;;;;;;;16.67;100.00;95527.31;1053129;28;19959;-68
2021/07/26 01:30:23;;;;;;;;;;;;;;;16.66;100.00;95530.34;1053245;28;19960;-68
2021/07/26 01:30:53;;;;;;;;;;;;;;;16.66;100.00;95530.34;1053130;28;19916;-68
2021/07/26 01:31:24;;;;;;;;;;;;;;;16.64;100.00;95527.97;1053240;28;20357;-68
2021/07/26 01:31:54;;;;;;;;;;;;;;;16.59;100.00;95533.53;1053119;28;19923;-68
2021/07/26 01:32:24;;;;;;;;;;;;;;;16.57;100.00;95536.53;1053271;28;19915;-68
2021/07/26 01:32:54;;;;;;;;;;;;;;;16.56;100.00;95534.16;1052783;28;19923;-68
2021/07/26 01:33:25;;;;;;;;;;;;;;;16.54;100.00;95531.78;1053299;28;19955;-68
2021/07/26 01:33:55;;;;;;;;;;;;;;;16.51;100.00;95545.09;1053135;28;19919;-68
2021/07/26 01:34:25;;;;;;;;;;;;;;;16.49;100.00;95536.56;1052980;28;20003;-69
2021/07/26 01:34:56;;;;;;;;;;;;;;;16.49;100.00;95539.25;1053062;28;19924;-68
2021/07/26 01:35:26;;;;;;;;;;;;;;;16.47;100.00;95542.25;1053162;28;20269;-68
2021/07/26 01:35:56;;;;;;;;;;;;;;;16.44;100.00;95542.91;1053070;28;19922;-68
2021/07/26 01:36:27;;;;;;;;;;;;;;;16.44;100.00;95540.19;1048724;28;19904;-68
2021/07/26 01:36:57;;;;;;;;;;;;;;;16.44;100.00;95536.72;1048695;28;19913;-68
2021/07/26 01:37:27;;;;;;;;;;;;;;;16.43;100.00;95537.78;1048761;28;19911;-68
2021/07/26 01:37:57;;;;;;;;;;;;;;;16.43;100.00;95538.63;1048732;28;19919;-68
2021/07/26 01:38:28;;;;;;;;;;;;;;;16.42;100.00;95533.53;1053201;28;19943;-69
2021/07/26 01:38:58;;;;;;;;;;;;;;;16.42;100.00;95533.53;1053002;28;19916;-68
2021/07/26 01:39:28;;;;;;;;;;;;;;;16.42;100.00;95541.63;1053199;28;19904;-68
2021/07/26 01:39:58;;;;;;;;;;;;;;;16.42;100.00;95530.81;1053149;28;19924;-68
2021/07/26 01:40:29;;;;;;;;;;;;;;;16.40;100.00;95535.75;1053148;28;19950;-68
2021/07/26 01:41:04;;;;;;;;;;;;;;;16.42;100.00;95536.22;1053141;28;19916;-69
2021/07/26 01:41:36;;;;;;;;;;;;;;;16.42;100.00;95533.53;1053143;28;19907;-68
2021/07/26 01:42:06;;;;;;;;;;;;;;;16.44;100.00;95542.09;1053157;28;20352;-68
2021/07/26 01:42:43;;;;;;;;;;;;;;;16.43;100.00;95535.91;1053199;28;19953;-68
2021/07/26 01:43:13;;;;;;;;;;;;;;;16.46;100.00;95529.09;1053066;28;19923;-69
2021/07/26 01:44:43;;;;;;;;;;;;;;;16.43;100.00;95530.53;1040165;28;19913;-69
2021/07/26 01:45:13;;;;;;;;;;;;;;;16.43;100.00;95533.22;1052681;28;19904;-68
2021/07/26 01:45:48;;;;;;;;;;;;;;;16.41;100.00;95532.72;1048588;28;19940;-68
2021/07/26 01:46:26;;;;;;;;;;;;;;;16.38;100.00;95525.28;1048650;28;19990;-68
2021/07/26 01:47:03;;;;;;;;;;;;;;;16.36;100.00;95527.50;1044539;28;20465;-68
2021/07/26 01:47:34;;;;;;;;;;;;;;;16.34;100.00;95533.22;1047130;28;19905;-68
2021/07/26 01:48:23;;;;;;;;;;;;;;;16.31;100.00;95523.06;1048609;28;20011;-68
2021/07/26 01:49:19;;;;;;;;;;;;;;;16.31;100.00;95528.44;1052503;28;20049;-68
2021/07/26 01:49:54;;;;;;;;;;;;;;;16.29;100.00;95525.28;1031878;28;20359;-68
2021/07/26 01:50:24;;;;;;;;;;;;;;;16.31;100.00;95520.34;1038906;28;20000;-68
2021/07/26 01:50:59;;;;;;;;;;;;;;;16.32;100.00;95521.16;1048685;28;19907;-68
2021/07/26 01:51:32;;;;;;;;;;;;;;;16.32;100.00;95518.44;1048452;28;19957;-68
2021/07/26 01:52:02;;;;;;;;;;;;;;;16.31;100.00;95520.34;1048718;28;19909;-68
2021/07/26 01:52:32;;;;;;;;;;;;;;;16.33;100.00;95520.06;1049678;28;19952;-68
2021/07/26 01:53:02;;;;;;;;;;;;;;;16.33;100.00;95517.38;1048703;28;19956;-68
2021/07/26 01:53:33;;;;;;;;;;;;;;;16.34;100.00;95516.25;1048720;28;19905;-68
2021/07/26 01:54:03;;;;;;;;;;;;;;;16.33;100.00;95512.75;1052863;28;20381;-68
2021/07/26 01:54:33;;;;;;;;;;;;;;;16.34;100.00;95511.66;1052779;28;19911;-69
2021/07/26 01:55:04;;;;;;;;;;;;;;;16.36;100.00;95516.72;1057055;28;20004;-68
2021/07/26 01:55:34;;;;;;;;;;;;;;;16.37;100.00;95516.38;1057043;28;20314;-68
2021/07/26 01:56:04;;;;;;;;;;;;;;;16.35;100.00;95513.22;1049101;28;20366;-68
2021/07/26 01:56:35;;;;;;;;;;;;;;;16.34;100.00;95514.34;1049853;28;19951;-68
2021/07/26 01:57:05;;;;;;;;;;;;;;;16.37;100.00;95515.59;1054224;28;19944;-68
2021/07/26 01:57:35;;;;;;;;;;;;;;;16.38;100.00;95511.81;1049961;28;20424;-69
2021/07/26 01:58:05;;;;;;;;;;;;;;;16.38;100.00;95512.59;1054220;28;19916;-68
2021/07/26 01:58:36;;;;;;;;;;;;;;;16.38;100.00;95511.81;1054256;28;19908;-68
2021/07/26 01:59:06;;;;;;;;;;;;;;;16.35;100.00;95513.22;1050055;28;19916;-68
2021/07/26 01:59:37;;;;;;;;;;;;;;;16.36;100.00;95506.72;1050063;28;19967;-69
2021/07/26 02:00:07;;;;;;;;;;;;;;;16.36;100.00;95506.72;1050028;28;19946;-68
2021/07/26 02:00:37;;;;;;;;;;;;;;;16.36;100.00;95514.00;1045916;28;19913;-69
2021/07/26 02:01:08;;;;;;;;;;;;;;;16.35;100.00;95509.75;1054266;28;19916;-68
2021/07/26 02:01:38;;;;;;;;;;;;;;;16.34;100.00;95506.25;1052061;28;19908;-68
2021/07/26 02:02:08;;;;;;;;;;;;;;;16.36;100.00;95511.31;1049970;28;19920;-68
2021/07/26 02:02:38;;;;;;;;;;;;;;;16.35;100.00;95507.84;1054266;28;19908;-68
2021/07/26 02:03:09;;;;;;;;;;;;;;;16.30;100.00;95504.50;1050332;28;20386;-68
2021/07/26 02:03:39;;;;;;;;;;;;;;;16.32;100.00;95504.97;1050319;28;19908;-68
2021/07/26 02:04:09;;;;;;;;;;;;;;;16.32;100.00;95505.75;1054031;28;19965;-68
2021/07/26 02:04:40;;;;;;;;;;;;;;;16.30;100.00;95510.69;1054239;28;19911;-69
2021/07/26 02:05:10;;;;;;;;;;;;;;;16.32;100.00;95504.97;1054227;28;20435;-68
2021/07/26 02:05:41;;;;;;;;;;;;;;;16.32;100.00;95502.28;1054180;28;19917;-68
2021/07/26 02:06:11;;;;;;;;;;;;;;;16.29;100.00;95503.72;1045787;28;19948;-68
2021/07/26 02:06:41;;;;;;;;;;;;;;;16.25;100.00;95504.66;1045777;28;19960;-69
2021/07/26 02:07:11;;;;;;;;;;;;;;;16.25;100.00;95501.97;1045910;28;20046;-69
2021/07/26 02:07:42;;;;;;;;;;;;;;;16.23;100.00;95506.91;1045925;28;19909;-68
2021/07/26 02:08:12;;;;;;;;;;;;;;;16.22;100.00;95510.69;1052006;28;19959;-68
2021/07/26 02:08:42;;;;;;;;;;;;;;;16.20;100.00;95508.31;1054535;28;19912;-68
2021/07/26 02:09:13;;;;;;;;;;;;;;;16.21;100.00;95503.72;1054545;28;19923;-68
2021/07/26 02:09:43;;;;;;;;;;;;;;;16.21;100.00;95512.59;1054518;28;19943;-69
2021/07/26 02:10:13;;;;;;;;;;;;;;;16.19;100.00;95503.25;1049784;28;20278;-69
2021/07/26 02:10:43;;;;;;;;;;;;;;;16.19;100.00;95504.03;1049990;28;20006;-68
2021/07/26 02:11:14;;;;;;;;;;;;;;;16.18;100.00;95505.16;1045801;28;19924;-68
2021/07/26 02:11:44;;;;;;;;;;;;;;;16.17;100.00;95505.44;1045850;28;20393;-68
2021/07/26 02:12:15;;;;;;;;;;;;;;;16.13;100.00;95501.81;1049926;28;19959;-68
2021/07/26 02:12:45;;;;;;;;;;;;;;;16.13;100.00;95499.13;1050034;28;19974;-68
2021/07/26 02:13:15;;;;;;;;;;;;;;;16.13;100.00;95499.91;1054465;28;19981;-69
2021/07/26 02:13:45;;;;;;;;;;;;;;;16.14;100.00;95504.19;1054533;28;19946;-69
2021/07/26 02:14:16;;;;;;;;;;;;;;;16.15;100.00;95502.28;1054474;28;19931;-68
2021/07/26 02:14:46;;;;;;;;;;;;;;;16.15;100.00;95503.06;1054494;28;20437;-68
2021/07/26 02:15:16;;;;;;;;;;;;;;;16.17;100.00;95498.16;1054465;28;19916;-68
2021/07/26 02:15:47;;;;;;;;;;;;;;;16.18;100.00;95499.75;1054527;28;19961;-68
2021/07/26 02:16:17;;;;;;;;;;;;;;;16.21;100.00;95503.72;1054474;28;19912;-69
2021/07/26 02:16:50;;;;;;;;;;;;;;;16.23;100.00;95509.59;1054472;28;19912;-69
2021/07/26 02:17:20;;;;;;;;;;;;;;;16.23;100.00;95504.19;1054539;28;20426;-68
2021/07/26 02:17:50;;;;;;;;;;;;;;;16.23;100.00;95501.50;1054520;28;19916;-69
2021/07/26 02:18:20;;;;;;;;;;;;;;;16.23;100.00;95505.00;1054271;28;21890;-68
2021/07/26 02:18:51;;;;;;;;;;;;;;;16.23;100.00;95507.69;1054278;28;19916;-68
2021/07/26 02:19:21;;;;;;;;;;;;;;;16.25;100.00;95510.06;1054507;28;19951;-69
2021/07/26 02:19:51;;;;;;;;;;;;;;;16.25;100.00;95501.97;1054513;28;19912;-69
2021/07/26 02:20:22;;;;;;;;;;;;;;;16.25;100.00;95502.75;1054395;28;19922;-69
2021/07/26 02:20:52;;;;;;;;;;;;;;;16.26;100.00;95503.53;1054427;28;19916;-68
2021/07/26 02:21:22;;;;;;;;;;;;;;;16.26;100.00;95507.03;1054305;28;20507;-68
2021/07/26 02:21:52;;;;;;;;;;;;;;;16.27;100.00;95510.53;1054505;28;19955;-69
2021/07/26 02:22:23;;;;;;;;;;;;;;;16.28;100.00;95512.13;1054485;28;19916;-68
2021/07/26 02:22:53;;;;;;;;;;;;;;;16.28;100.00;95510.22;1054470;28;20288;-68
2021/07/26 02:23:24;;;;;;;;;;;;;;;16.30;100.00;95516.09;1054531;28;19916;-68
2021/07/26 02:23:54;;;;;;;;;;;;;;;16.32;100.00;95518.44;1054409;28;19935;-68
2021/07/26 02:24:24;;;;;;;;;;;;;;;16.32;100.00;95521.16;1054493;28;19916;-69
2021/07/26 02:24:55;;;;;;;;;;;;;;;16.32;100.00;95516.53;1054395;28;19944;-68
2021/07/26 02:25:25;;;;;;;;;;;;;;;16.33;100.00;95520.84;1054496;28;20353;-68
2021/07/26 02:25:55;;;;;;;;;;;;;;;16.35;100.00;95526.72;1054373;28;19955;-68
2021/07/26 02:26:25;;;;;;;;;;;;;;;16.36;100.00;95530.97;1054480;28;19912;-68
2021/07/26 02:26:56;;;;;;;;;;;;;;;16.38;100.00;95525.28;1054452;28;19915;-68
2021/07/26 02:27:26;;;;;;;;;;;;;;;16.38;100.00;95525.28;1054443;28;19914;-66
2021/07/26 02:27:59;;;;;;;;;;;;;;;16.39;100.00;95526.88;1054482;28;20400;-66
2021/07/26 02:28:29;;;;;;;;;;;;;;;16.40;100.00;95524.97;1054270;28;19916;-66
2021/07/26 02:28:59;;;;;;;;;;;;;;;16.41;100.00;95524.63;1054350;28;19943;-68
2021/07/26 02:29:30;;;;;;;;;;;;;;;16.43;100.00;95524.31;1049931;28;19908;-68
2021/07/26 02:30:00;;;;;;;;;;;;;;;16.43;100.00;95522.44;1050040;28;20001;-69
2021/07/26 02:30:30;;;;;;;;;;;;;;;16.43;100.00;95529.72;1049967;28;19920;-68
2021/07/26 02:31:01;;;;;;;;;;;;;;;16.43;100.00;95527.00;1050012;28;19918;-69
2021/07/26 02:31:31;;;;;;;;;;;;;;;16.44;100.00;95531.31;1054533;28;20402;-68
2021/07/26 02:32:01;;;;;;;;;;;;;;;16.45;100.00;95539.09;1054468;28;19912;-69
2021/07/26 02:32:31;;;;;;;;;;;;;;;16.47;100.00;95536.06;1054516;28;19998;-68
2021/07/26 02:33:02;;;;;;;;;;;;;;;16.47;100.00;95536.84;1054410;28;19912;-69
2021/07/26 02:33:32;;;;;;;;;;;;;;;16.46;100.00;95537.97;1054363;28;19916;-68
2021/07/26 02:34:02;;;;;;;;;;;;;;;16.47;100.00;95530.66;1054365;28;20320;-69
2021/07/26 02:34:33;;;;;;;;;;;;;;;16.47;100.00;95541.44;1054157;28;19916;-69
2021/07/26 02:35:03;;;;;;;;;;;;;;;16.47;100.00;95544.94;1049907;28;19939;-66
2021/07/26 02:35:33;;;;;;;;;;;;;;;16.50;100.00;95540.81;1049911;28;20365;-66
2021/07/26 02:36:05;;;;;;;;;;;;;;;16.52;100.00;95550.19;1049212;28;21380;-68
2021/07/26 02:36:38;;;;;;;;;;;;;;;16.50;100.00;95544.31;1050219;28;19976;-68
2021/07/26 02:37:08;;;;;;;;;;;;;;;16.52;100.00;95547.47;1054442;28;19916;-69
2021/07/26 02:37:38;;;;;;;;;;;;;;;16.51;100.00;95547.81;1049962;28;20415;-68
2021/07/26 02:38:09;;;;;;;;;;;;;;;16.52;100.00;95549.38;1049701;28;19919;-68
2021/07/26 02:38:39;;;;;;;;;;;;;;;16.50;100.00;95541.63;1050076;28;20278;-68
2021/07/26 02:39:09;;;;;;;;;;;;;;;16.51;100.00;95548.59;1049920;28;19909;-68
2021/07/26 02:39:40;;;;;;;;;;;;;;;16.52;100.00;95549.38;1054441;28;20425;-69